Waterbury, VT (05676)

5:02 PM EDT on August 29, 2015 (GMT -0400)
Bolton Valley | | Change Station
CLOSE
Current Station
Personal Weather Station
Location: Bolton, VT
Elevation: 2100 ft
Nearby Weather Stations

Elev 2100 ft 44.42 °N, 72.85 °W | Updated 4 minutes ago

Partly Cloudy
Partly Cloudy
70.1 °F
Feels Like 75 °F
N
0.0
Wind Variable Wind from NW
Gusts 1.0 mph

Today
High -- | Low -- °F
--% Chance of Precip.
Yesterday
High -- | Low -- °F
Precip. -- in
6:10 AM 7:33 PM
Full, 100% visible
Pressure 30.13 in
Visibility 10.0 miles
Clouds Few 5500 ft
Heat Index 75 °F
Dew Point 57 °F
Humidity 63%
Rainfall 0.00 in
Snow Depth Not available.
UV 3 out of 12
Pollen 8.40 out of 12
Air Quality Not available.
Flu Activity Not available.
METAR KMPV 292051Z AUTO 20003KT 10SM FEW055 24/12 A3014 RMK AO2 SLP203 T02390122 56015
Pressure 30.13 in
Visibility 10.0 miles
Clouds Few 5500 ft
Heat Index 75 °F
Dew Point 57 °F
Humidity 63%
Rainfall 0.00 in
Snow Depth Not available.
UV 3 out of 12
Pollen 8.40 out of 12
Air Quality Not available.
Flu Activity Not available.
METAR KMPV 292051Z AUTO 20003KT 10SM FEW055 24/12 A3014 RMK AO2 SLP203 T02390122 56015

10-Day Weather Forecast

×

Almanac

Astronomy

Aug. 29, 2015 Rise Set
Actual Time
Civil Twilight
Nautical Twilight
Astronomical Twilight
Moon
Length of Visible Light
Length of Day
Tomorrow will be .
, % of the Moon is Illuminated

Today's Extremes

State Highs State Lows

Community

WunderPhotos

Upload Photos

1,850,800 photos uploaded!

WunderBlogs® & News

Nearby

Air Quality

  Air Quality AQ Index Pollutant
Not available.

Snow Depth

Station Depth Elevation

Earthquake Activity

City Distance Mag. Time & Date
Minimum magnitude displayed is 2.5.

Coastal Water Temperatures

Place Temperature

Stations

Nearby Weather Stations

Station Location Temp. Windchill Dew Point Humidity Wind Precip. Elev Updated Type